Time;durP1;ratioP1;P1;durP2;ratioP2;P2;SDS_P1;SDS_P2;PMS_P1;PMS_P2;Temp;Humidity;BMP_temperature;BMP_pressure;BME280_temperature;BME280_humidity;BME280_pressure;Samples;Min_cycle;Max_cycle;Signal;HPM_P1;HPM_P2
2022/08/05 00:03:03;;;;;;;1.00;0.90;;;20.00;50.90;22.10;93770.00;;;;10471851;28;45241;-66
2022/08/05 00:08:24;;;;;;;1.00;0.90;;;19.90;50.90;22.10;93776.00;;;;10472570;28;45489;-66
2022/08/05 00:13:46;;;;;;;0.88;0.65;;;20.00;50.90;22.10;93771.00;;;;10481759;28;45176;-67
2022/08/05 00:19:06;;;;;;;1.05;0.82;;;20.00;51.00;22.10;93787.00;;;;10481491;28;45505;-67
2022/08/05 00:24:27;;;;;;;1.30;0.90;;;19.90;50.90;22.10;93815.00;;;;10481655;28;45154;-67
2022/08/05 00:29:49;;;;;;;1.05;0.95;;;19.90;50.90;22.10;93817.00;;;;10481026;28;45135;-67
2022/08/05 00:35:10;;;;;;;1.38;0.90;;;19.90;51.10;22.10;93804.00;;;;10480722;28;45262;-67
2022/08/05 00:40:30;;;;;;;1.52;0.88;;;20.00;51.10;22.10;93797.00;;;;10480598;28;45262;-66
2022/08/05 00:45:53;;;;;;;1.05;0.75;;;20.00;51.20;22.20;93801.00;;;;10480016;28;45272;-66
2022/08/05 00:51:15;;;;;;;1.13;0.93;;;20.00;51.10;22.20;93792.00;;;;10480528;28;45344;-66
2022/08/05 00:56:35;;;;;;;1.50;0.90;;;20.00;51.00;22.20;93788.00;;;;10479370;28;45440;-66
2022/08/05 01:01:57;;;;;;;0.77;0.77;;;20.00;51.10;22.20;93784.00;;;;10479763;28;45227;-68
2022/08/05 01:07:18;;;;;;;1.27;0.93;;;20.00;51.00;22.20;93792.00;;;;10486185;28;45324;-67
2022/08/05 01:12:41;;;;;;;0.80;0.73;;;20.00;51.10;22.20;93805.00;;;;10453439;28;45132;-67
2022/08/05 01:18:10;;;;;;;1.02;0.80;;;20.00;51.20;22.20;93812.00;;;;10479324;28;45052;-67
2022/08/05 01:23:47;;;;;;;0.80;0.80;;;20.00;51.30;22.10;93828.00;;;;10479372;28;45541;-66
2022/08/05 01:29:17;;;;;;;1.38;0.82;;;20.00;51.30;22.10;93829.00;;;;10470060;28;45236;-67
2022/08/05 01:34:47;;;;;;;1.15;1.00;;;20.00;51.30;22.10;93846.00;;;;10472040;28;45156;-66
2022/08/05 01:40:10;;;;;;;1.25;0.85;;;20.00;51.40;22.10;93854.00;;;;10476310;28;45127;-67
2022/08/05 01:45:33;;;;;;;0.95;0.70;;;19.90;51.50;22.10;93864.00;;;;10477479;28;45261;-66
2022/08/05 01:50:56;;;;;;;1.95;0.90;;;20.00;51.60;22.10;93879.00;;;;10479424;28;45300;-67
2022/08/05 01:56:18;;;;;;;1.10;1.00;;;19.90;51.50;22.10;93888.00;;;;10478100;28;45171;-66
2022/08/05 02:01:41;;;;;;;0.93;0.85;;;19.90;51.50;22.10;93894.00;;;;10479252;28;45134;-67
2022/08/05 02:07:02;;;;;;;1.02;0.80;;;19.90;51.50;22.10;93885.00;;;;10489836;28;45258;-67
2022/08/05 02:12:33;;;;;;;1.98;0.95;;;19.90;51.60;22.10;93887.00;;;;10478359;28;45258;-66
2022/08/05 02:18:03;;;;;;;1.13;0.90;;;19.90;51.50;22.10;93879.00;;;;10477617;28;45155;-66
2022/08/05 02:23:30;;;;;;;1.00;0.88;;;20.00;51.50;22.10;93880.00;;;;10476996;28;45082;-66
2022/08/05 02:28:52;;;;;;;1.00;0.80;;;19.90;51.50;22.10;93872.00;;;;10464885;28;45307;-67
2022/08/05 02:34:17;;;;;;;1.08;0.98;;;19.90;51.60;22.10;93889.00;;;;10477445;28;45180;-66
2022/08/05 02:39:39;;;;;;;1.20;1.00;;;19.90;51.70;22.10;93892.00;;;;10477335;28;45180;-68
2022/08/05 02:45:01;;;;;;;1.23;0.90;;;19.90;51.80;22.10;93883.00;;;;10473900;28;45686;-67
2022/08/05 02:50:24;;;;;;;1.52;0.90;;;19.90;51.70;22.10;93881.00;;;;10476515;28;45304;-67
2022/08/05 02:55:46;;;;;;;1.45;1.00;;;19.90;51.80;22.10;93875.00;;;;10476172;28;45171;-66
2022/08/05 03:01:13;;;;;;;1.25;1.00;;;19.90;51.70;22.10;93878.00;;;;10476826;28;45191;-66
2022/08/05 03:06:36;;;;;;;1.17;0.95;;;19.90;51.80;22.10;93875.00;;;;10478732;28;45302;-67
2022/08/05 03:11:56;;;;;;;1.35;1.10;;;19.90;52.00;22.10;93872.00;;;;10469407;28;45272;-66
2022/08/05 03:17:17;;;;;;;1.10;0.80;;;19.90;52.00;22.10;93876.00;;;;10468663;28;45265;-67
2022/08/05 03:22:39;;;;;;;1.00;0.80;;;19.90;52.10;22.10;93881.00;;;;10469303;28;45129;-67
2022/08/05 03:28:00;;;;;;;1.77;1.20;;;19.90;52.20;22.10;93881.00;;;;10468893;28;45133;-67
2022/08/05 03:33:21;;;;;;;1.55;0.93;;;19.90;52.30;22.10;93867.00;;;;10468856;28;45168;-67
2022/08/05 03:38:44;;;;;;;1.30;1.08;;;19.90;52.30;22.10;93877.00;;;;10480675;28;45291;-66
2022/08/05 03:44:05;;;;;;;1.27;1.00;;;19.90;52.30;22.10;93863.00;;;;10495137;28;45170;-67
2022/08/05 03:49:25;;;;;;;1.35;0.90;;;19.90;52.80;22.10;93866.00;;;;10482975;28;45284;-66
2022/08/05 03:54:55;;;;;;;1.52;1.10;;;19.90;52.90;22.10;93859.00;;;;10469868;28;45255;-67
2022/08/05 04:00:17;;;;;;;1.58;1.15;;;19.90;53.20;22.10;93864.00;;;;10481599;28;45454;-66
2022/08/05 04:05:39;;;;;;;1.80;1.30;;;19.90;53.20;22.10;93865.00;;;;10481693;28;45436;-67
2022/08/05 04:11:01;;;;;;;1.13;0.90;;;19.90;53.40;22.10;93852.00;;;;10456119;28;45189;-66
2022/08/05 04:16:23;;;;;;;1.10;0.90;;;19.90;53.40;22.10;93859.00;;;;10481170;28;45204;-67
2022/08/05 04:21:44;;;;;;;1.15;1.05;;;19.90;53.80;22.00;93848.00;;;;10481941;28;45175;-66
2022/08/05 04:27:06;;;;;;;1.48;1.10;;;19.90;54.60;22.00;93867.00;;;;10481392;28;45272;-66
2022/08/05 04:32:27;;;;;;;2.63;1.50;;;19.90;54.10;22.00;93861.00;;;;10479749;28;45181;-68
2022/08/05 04:37:47;;;;;;;1.65;1.10;;;19.90;54.20;22.00;93847.00;;;;10473983;28;45160;-66
2022/08/05 04:43:09;;;;;;;1.35;1.00;;;19.90;55.00;22.00;93842.00;;;;10487546;28;45229;-67
2022/08/05 04:48:30;;;;;;;1.77;1.13;;;19.90;54.50;22.00;93852.00;;;;10472586;28;45135;-66
2022/08/05 04:53:50;;;;;;;1.20;0.93;;;19.90;54.60;22.00;93842.00;;;;10472786;28;45222;-66
2022/08/05 04:59:14;;;;;;;1.10;1.00;;;19.90;54.80;22.00;93837.00;;;;10472605;28;45292;-66
2022/08/05 05:04:35;;;;;;;1.20;1.10;;;19.90;55.00;22.00;93823.00;;;;10472283;28;45351;-67
2022/08/05 05:09:55;;;;;;;1.65;1.00;;;19.90;55.10;22.00;93830.00;;;;10475647;28;45158;-66
2022/08/05 05:15:18;;;;;;;1.20;1.00;;;19.90;55.10;22.00;93824.00;;;;10476447;28;45513;-66
2022/08/05 05:20:38;;;;;;;1.20;1.00;;;19.90;55.40;22.00;93843.00;;;;10489954;28;45198;-66
2022/08/05 05:25:59;;;;;;;1.20;0.90;;;19.90;55.70;22.00;93863.00;;;;10470842;28;45205;-66
2022/08/05 05:31:21;;;;;;;1.58;1.00;;;19.90;55.90;22.00;93903.00;;;;10472144;28;45216;-66
2022/08/05 05:36:42;;;;;;;0.95;0.90;;;19.90;56.00;22.10;93901.00;;;;10471434;28;45227;-66
2022/08/05 05:42:02;;;;;;;1.77;1.00;;;19.90;56.30;22.10;93898.00;;;;10476170;28;45354;-66
2022/08/05 05:47:24;;;;;;;1.08;0.85;;;19.90;55.90;22.10;93902.00;;;;10477619;28;45211;-66
2022/08/05 05:52:47;;;;;;;1.25;0.90;;;19.90;55.60;22.10;93896.00;;;;10474366;28;45481;-67
2022/08/05 05:58:07;;;;;;;1.35;1.08;;;19.90;55.60;22.10;93905.00;;;;10455859;28;45368;-67
2022/08/05 06:03:29;;;;;;;1.33;0.90;;;19.90;55.60;22.10;93900.00;;;;10470898;28;45231;-67
2022/08/05 06:08:50;;;;;;;1.52;1.02;;;20.00;55.40;22.20;93898.00;;;;10472121;28;45255;-67
2022/08/05 06:14:10;;;;;;;1.00;0.80;;;20.00;55.40;22.20;93891.00;;;;10469280;28;45299;-67
2022/08/05 06:19:32;;;;;;;1.33;1.02;;;20.00;55.30;22.20;93897.00;;;;10477148;28;45187;-67
2022/08/05 06:24:52;;;;;;;1.15;0.90;;;20.00;55.20;22.20;93887.00;;;;10475766;28;45250;-67
2022/08/05 06:30:15;;;;;;;1.15;0.90;;;20.00;55.10;22.20;93898.00;;;;10470742;28;45178;-68
2022/08/05 06:35:37;;;;;;;1.20;0.80;;;20.00;55.10;22.20;93907.00;;;;10467753;28;45257;-67
2022/08/05 06:40:58;;;;;;;1.60;1.00;;;20.00;55.20;22.10;93912.00;;;;10463845;28;45218;-68
2022/08/05 06:46:19;;;;;;;1.75;1.10;;;20.00;55.20;22.10;93894.00;;;;10469439;28;45216;-68
2022/08/05 06:51:41;;;;;;;0.98;0.80;;;20.00;55.10;22.20;93910.00;;;;10468664;28;45216;-68
2022/08/05 06:57:01;;;;;;;0.80;0.80;;;20.00;55.10;22.20;93932.00;;;;10472724;28;45137;-67
2022/08/05 07:02:22;;;;;;;1.58;0.80;;;20.00;55.10;22.10;93931.00;;;;10470229;28;45291;-67
2022/08/05 07:07:47;;;;;;;1.02;0.88;;;20.00;55.40;22.10;93938.00;;;;10470086;28;45250;-68
2022/08/05 07:18:46;;;;;;;0.95;0.70;;;20.00;55.40;22.10;93944.00;;;;10484928;28;45240;-67
2022/08/05 07:24:09;;;;;;;0.77;0.77;;;20.00;55.40;22.10;93951.00;;;;10479856;28;45263;-66
2022/08/05 07:29:29;;;;;;;1.10;0.90;;;20.00;55.30;22.10;93960.00;;;;10474995;28;45308;-66
2022/08/05 07:34:50;;;;;;;1.10;0.98;;;19.90;55.20;22.20;93978.00;;;;10475435;28;45139;-67
2022/08/05 07:40:12;;;;;;;1.55;0.90;;;20.00;55.10;22.20;93974.00;;;;10476131;28;45203;-67
2022/08/05 07:45:33;;;;;;;0.90;0.80;;;20.10;55.20;22.30;93974.00;;;;10475188;28;45136;-67
2022/08/05 07:50:53;;;;;;;1.90;0.85;;;20.10;56.10;22.30;93982.00;;;;10475185;28;45205;-66
2022/08/05 07:56:15;;;;;;;3.10;1.10;;;20.10;55.80;22.20;93982.00;;;;10474923;28;45192;-67
2022/08/05 08:01:36;;;;;;;3.38;1.05;;;20.10;56.30;22.20;93971.00;;;;10476540;28;45335;-67
2022/08/05 08:06:59;;;;;;;2.72;1.00;;;20.00;57.20;22.20;93991.00;;;;10479520;28;45226;-67
2022/08/05 08:12:22;;;;;;;1.77;1.10;;;20.10;56.80;22.20;93995.00;;;;10473917;28;45260;-67
2022/08/05 08:17:43;;;;;;;3.28;1.20;;;20.00;57.20;22.20;93988.00;;;;10476502;28;45273;-67
2022/08/05 08:23:03;;;;;;;2.20;1.10;;;20.00;56.90;22.20;94021.00;;;;10490631;27;45182;-67
2022/08/05 08:28:25;;;;;;;2.65;0.88;;;20.00;56.90;22.20;94018.00;;;;10475658;28;45326;-67
2022/08/05 08:33:46;;;;;;;3.45;1.08;;;20.00;56.80;22.20;94017.00;;;;10457338;28;45395;-68
2022/08/05 08:39:07;;;;;;;1.95;0.88;;;20.00;56.10;22.20;94023.00;;;;10473516;28;45220;-68
2022/08/05 08:44:31;;;;;;;2.20;1.10;;;20.10;56.30;22.30;94020.00;;;;10472982;28;45281;-68
2022/08/05 08:49:54;;;;;;;1.08;0.70;;;20.10;56.10;22.30;94017.00;;;;10473494;28;45173;-68
2022/08/05 08:55:14;;;;;;;1.88;1.02;;;20.20;56.40;22.40;94022.00;;;;10473406;28;45221;-68
2022/08/05 09:00:37;;;;;;;6.22;2.50;;;20.20;56.60;22.40;94011.00;;;;10471776;28;45200;-68
2022/08/05 09:05:58;;;;;;;25.27;10.20;;;20.20;56.70;22.40;94020.00;;;;10471551;28;45178;-68
2022/08/05 09:11:18;;;;;;;30.85;13.20;;;20.20;56.50;22.40;94021.00;;;;10468700;28;45771;-68
2022/08/05 09:16:41;;;;;;;39.30;15.73;;;20.20;56.30;22.40;94006.00;;;;10466897;28;45394;-68
2022/08/05 09:22:01;;;;;;;31.98;12.45;;;20.20;56.60;22.30;93999.00;;;;10485321;28;45195;-68
2022/08/05 09:27:33;;;;;;;33.97;12.85;;;20.20;57.00;22.30;94008.00;;;;10471611;28;45356;-67
2022/08/05 09:33:01;;;;;;;28.15;11.70;;;20.10;56.90;22.30;94017.00;;;;10472610;28;45320;-67
2022/08/05 09:38:22;;;;;;;24.98;10.02;;;20.10;56.90;22.30;94008.00;;;;10475136;28;45418;-66
2022/08/05 09:43:42;;;;;;;22.70;9.65;;;20.10;56.90;22.30;94007.00;;;;10472277;28;45237;-69
2022/08/05 09:49:06;;;;;;;20.52;7.68;;;20.10;56.60;22.40;94015.00;;;;10477234;28;45217;-67
2022/08/05 09:54:30;;;;;;;21.45;7.38;;;20.20;56.70;22.40;94009.00;;;;10477102;28;45343;-67
2022/08/05 09:59:58;;;;;;;13.98;5.53;;;20.20;56.70;22.40;93994.00;;;;10460679;28;45124;-68
2022/08/05 10:05:24;;;;;;;13.43;5.75;;;20.30;56.80;22.40;93986.00;;;;10478913;28;45122;-65
2022/08/05 10:10:48;;;;;;;13.88;5.47;;;20.30;56.60;22.50;93999.00;;;;10476496;28;45365;-66
2022/08/05 10:16:31;;;;;;;11.23;4.93;;;20.30;56.60;22.50;93994.00;;;;10467870;28;45288;-67
2022/08/05 10:21:53;;;;;;;9.38;3.75;;;20.30;56.50;22.40;93988.00;;;;10482384;28;45203;-67
2022/08/05 10:27:16;;;;;;;7.82;4.05;;;20.30;56.70;22.40;93987.00;;;;10458051;28;45328;-67
2022/08/05 10:32:36;;;;;;;8.55;3.50;;;20.30;56.40;22.40;93987.00;;;;10469656;28;45297;-67
2022/08/05 10:38:00;;;;;;;10.68;4.53;;;20.30;56.50;22.40;93965.00;;;;10469549;28;45301;-71
2022/08/05 10:43:40;;;;;;;7.10;3.03;;;20.30;56.80;22.50;93978.00;;;;10468494;28;45120;-68
2022/08/05 10:49:07;;;;;;;7.28;3.00;;;20.30;56.60;22.50;93951.00;;;;10470827;28;45499;-68
2022/08/05 10:54:48;;;;;;;;;;;20.30;56.40;22.50;93951.00;;;;10469443;28;45272;-68
2022/08/05 11:00:12;;;;;;;6.60;2.92;;;20.40;56.30;22.50;93955.00;;;;10469121;28;45307;-67
2022/08/05 11:05:34;;;;;;;5.68;2.38;;;20.40;56.50;22.50;93966.00;;;;10467173;28;45226;-68
2022/08/05 11:11:33;;;;;;;6.88;2.78;;;20.40;56.70;22.50;93961.00;;;;10469136;28;45243;-66
2022/08/05 11:17:28;;;;;;;4.82;2.35;;;20.40;56.40;22.60;93952.00;;;;10468521;28;45145;-66
2022/08/05 11:22:51;;;;;;;4.55;2.05;;;20.40;56.40;22.60;93961.00;;;;10483812;28;45205;-66
2022/08/05 11:28:43;;;;;;;4.88;2.22;;;20.40;56.20;22.60;93960.00;;;;10469347;28;45289;-66
2022/08/05 11:34:06;;;;;;;5.25;2.08;;;20.40;56.30;22.60;93960.00;;;;10458205;28;45187;-67
2022/08/05 11:39:51;;;;;;;3.78;1.88;;;20.40;56.40;22.60;93969.00;;;;10468508;28;45278;-67
2022/08/05 11:45:13;;;;;;;4.55;1.73;;;20.40;56.80;22.60;93964.00;;;;10468158;28;45199;-67
2022/08/05 11:50:38;;;;;;;5.72;1.80;;;20.40;56.70;22.60;93948.00;;;;10468371;28;45279;-66
2022/08/05 11:56:01;;;;;;;4.05;1.77;;;20.40;56.60;22.70;93935.00;;;;10470525;28;45261;-65
2022/08/05 12:01:23;;;;;;;2.50;1.50;;;20.50;56.80;22.70;93945.00;;;;10462934;28;45186;-65
2022/08/05 12:06:44;;;;;;;2.67;1.70;;;20.50;56.50;22.70;93946.00;;;;10474286;28;45125;-65
2022/08/05 12:12:06;;;;;;;3.50;1.40;;;20.50;56.40;22.70;93955.00;;;;10474885;28;45283;-65
2022/08/05 12:17:35;;;;;;;2.05;1.30;;;20.50;56.60;22.70;93895.00;;;;10474167;28;45187;-66
2022/08/05 12:23:08;;;;;;;2.53;1.63;;;20.50;56.80;22.70;93949.00;;;;10489208;28;45293;-65
2022/08/05 12:28:34;;;;;;;3.30;1.77;;;20.60;56.80;22.80;93935.00;;;;10474590;28;45171;-65
2022/08/05 12:33:57;;;;;;;3.63;1.40;;;20.60;56.90;22.80;93926.00;;;;10462658;28;45345;-65
2022/08/05 12:39:17;;;;;;;4.57;1.95;;;20.60;56.90;22.80;93932.00;;;;10474393;28;45247;-66
2022/08/05 12:44:39;;;;;;;2.58;1.48;;;20.60;56.80;22.70;93920.00;;;;10473522;28;45292;-66
2022/08/05 12:50:13;;;;;;;3.38;1.60;;;20.60;56.80;22.70;93921.00;;;;10474289;28;45231;-66
2022/08/05 12:55:35;;;;;;;3.65;1.95;;;20.60;57.00;22.70;93919.00;;;;10473634;28;45154;-66
2022/08/05 13:00:55;;;;;;;3.88;1.70;;;20.50;56.90;22.70;93910.00;;;;10478830;28;45441;-66
2022/08/05 13:06:18;;;;;;;2.80;1.40;;;20.60;56.90;22.60;93895.00;;;;10437826;28;45178;-66
2022/08/05 13:11:41;;;;;;;2.83;1.40;;;20.50;56.90;22.60;93878.00;;;;10458833;28;45203;-66
2022/08/05 13:17:03;;;;;;;2.67;1.48;;;20.40;56.80;22.70;93891.00;;;;10479676;28;45185;-66
2022/08/05 13:22:25;;;;;;;2.10;1.25;;;20.50;56.70;22.70;93878.00;;;;10473787;28;45238;-66
2022/08/05 13:27:50;;;;;;;3.15;1.27;;;20.60;56.80;22.80;93858.00;;;;10479265;28;45227;-66
2022/08/05 13:33:10;;;;;;;1.85;1.10;;;20.60;56.90;22.80;93866.00;;;;10472905;28;45180;-66
2022/08/05 13:38:32;;;;;;;2.92;1.30;;;20.60;57.00;22.80;93867.00;;;;10481201;28;45140;-68
2022/08/05 13:43:53;;;;;;;3.92;1.35;;;20.60;56.90;22.80;93871.00;;;;10475114;28;45444;-71
2022/08/05 13:49:14;;;;;;;3.25;1.40;;;20.60;57.00;22.80;93855.00;;;;10476732;28;45219;-65
2022/08/05 13:54:36;;;;;;;2.22;1.30;;;20.70;57.60;22.80;93858.00;;;;10469971;28;45194;-65
2022/08/05 13:59:56;;;;;;;2.55;1.38;;;20.70;58.30;22.80;93839.00;;;;10454689;28;45216;-65
2022/08/05 14:05:17;;;;;;;3.83;1.30;;;20.60;57.50;22.80;93852.00;;;;10471873;28;45192;-65
2022/08/05 14:10:39;;;;;;;1.58;1.13;;;20.60;57.70;22.80;93859.00;;;;10471796;28;45505;-65
2022/08/05 14:15:59;;;;;;;2.22;1.20;;;20.60;57.60;22.80;93859.00;;;;10470362;28;45246;-65
2022/08/05 14:21:20;;;;;;;4.15;1.20;;;20.60;57.60;22.80;93832.00;;;;10470621;28;45239;-65
2022/08/05 14:26:42;;;;;;;2.10;1.10;;;20.60;57.50;22.70;93842.00;;;;10480875;28;45466;-65
2022/08/05 14:32:03;;;;;;;2.40;1.40;;;20.60;57.40;22.80;93843.00;;;;10469433;28;45151;-66
2022/08/05 14:37:24;;;;;;;1.77;1.02;;;20.60;57.30;22.80;93830.00;;;;10469553;28;45177;-68
2022/08/05 14:42:45;;;;;;;2.00;1.20;;;20.60;57.30;22.90;93835.00;;;;10464942;28;45257;-68
2022/08/05 14:48:06;;;;;;;2.08;1.38;;;20.70;57.20;22.90;93819.00;;;;10468522;28;45368;-65
2022/08/05 14:53:27;;;;;;;2.42;1.10;;;20.70;57.20;22.90;93820.00;;;;10469329;28;45259;-66
2022/08/05 14:58:50;;;;;;;1.35;1.10;;;20.70;57.20;22.90;93817.00;;;;10469105;28;45409;-67
2022/08/05 15:04:11;;;;;;;4.60;1.15;;;20.70;57.20;22.90;93807.00;;;;10469321;28;45164;-67
2022/08/05 15:09:31;;;;;;;2.05;1.10;;;20.70;57.10;22.90;93812.00;;;;10475049;28;45343;-65
2022/08/05 15:14:53;;;;;;;3.97;1.33;;;20.70;57.20;22.90;93812.00;;;;10463458;28;45200;-65
2022/08/05 15:20:14;;;;;;;2.85;1.30;;;20.80;57.50;22.90;93795.00;;;;10471553;28;45180;-65
2022/08/05 15:25:34;;;;;;;2.17;1.20;;;20.80;57.50;22.90;93795.00;;;;10472978;28;45239;-66
2022/08/05 15:30:57;;;;;;;2.80;1.15;;;20.70;57.60;22.90;93828.00;;;;10471161;28;45160;-66
2022/08/05 15:36:17;;;;;;;3.72;1.40;;;20.80;58.00;22.90;93834.00;;;;10478367;28;45421;-66
2022/08/05 15:41:38;;;;;;;2.42;1.30;;;20.70;58.50;23.00;93828.00;;;;10475560;28;45264;-69
2022/08/05 15:47:02;;;;;;;1.77;1.20;;;20.80;57.70;23.00;93838.00;;;;10474894;28;45197;-66
2022/08/05 15:52:25;;;;;;;3.35;1.40;;;20.80;57.50;23.00;93828.00;;;;10475027;28;45189;-66
2022/08/05 15:57:45;;;;;;;3.33;1.50;;;20.80;57.70;23.00;93842.00;;;;10474004;28;45271;-67
2022/08/05 16:03:07;;;;;;;3.25;1.50;;;20.90;57.90;23.00;93827.00;;;;10475848;28;45343;-69
2022/08/05 16:08:28;;;;;;;4.82;1.48;;;20.90;57.40;23.10;93828.00;;;;10475214;28;44914;-69
2022/08/05 16:13:48;;;;;;;1.88;1.25;;;20.90;57.70;23.10;93814.00;;;;10474699;28;45223;-71
2022/08/05 16:19:10;;;;;;;3.08;1.45;;;20.90;58.40;23.10;93830.00;;;;10474291;28;45295;-67
2022/08/05 16:24:32;;;;;;;2.72;1.50;;;20.90;57.80;23.10;93822.00;;;;10494728;28;45167;-65
2022/08/05 16:29:52;;;;;;;1.85;1.20;;;20.90;57.50;23.10;93821.00;;;;10474555;28;45256;-68
2022/08/05 16:35:14;;;;;;;3.53;1.35;;;21.00;57.60;23.10;93796.00;;;;10458570;28;45209;-68
2022/08/05 16:40:35;;;;;;;3.58;1.40;;;21.00;57.60;23.10;93805.00;;;;10470364;28;45517;-69
2022/08/05 16:45:56;;;;;;;2.75;1.25;;;21.00;57.60;23.10;93785.00;;;;10473537;28;45172;-64
2022/08/05 16:51:18;;;;;;;3.08;1.50;;;21.00;57.30;23.10;93788.00;;;;10473506;28;45298;-63
2022/08/05 16:56:38;;;;;;;2.90;1.40;;;21.00;57.60;23.10;93797.00;;;;10471836;28;45299;-63
2022/08/05 17:01:59;;;;;;;2.50;1.40;;;21.00;57.60;23.10;93799.00;;;;10472571;28;45170;-63
2022/08/05 17:07:21;;;;;;;4.00;1.27;;;20.90;57.40;23.10;93792.00;;;;10472767;28;45348;-63
2022/08/05 17:12:42;;;;;;;3.03;1.50;;;20.90;57.50;23.10;93805.00;;;;10472807;28;45187;-63
2022/08/05 17:18:02;;;;;;;2.42;1.30;;;20.90;57.40;23.10;93829.00;;;;10471772;28;45533;-64
2022/08/05 17:23:24;;;;;;;3.03;1.38;;;20.90;57.60;23.00;93824.00;;;;10485700;28;45612;-64
2022/08/05 17:28:44;;;;;;;2.15;1.20;;;20.90;57.60;23.00;93833.00;;;;10453566;28;45161;-64
2022/08/05 17:34:05;;;;;;;3.30;1.60;;;20.80;57.60;23.00;93852.00;;;;10470808;28;45235;-63
2022/08/05 17:39:28;;;;;;;3.03;1.42;;;20.80;57.60;23.00;93864.00;;;;10471239;28;45449;-64
2022/08/05 17:44:49;;;;;;;4.20;1.52;;;20.80;57.50;23.00;93863.00;;;;10471274;28;45437;-64
2022/08/05 17:50:10;;;;;;;5.38;1.73;;;20.90;57.60;23.00;93869.00;;;;10471652;28;45241;-64
2022/08/05 17:55:33;;;;;;;6.75;1.50;;;20.80;57.60;23.00;93868.00;;;;10470042;28;45211;-63
2022/08/05 18:00:54;;;;;;;2.50;1.42;;;20.80;57.30;23.00;93877.00;;;;10471555;28;45160;-63
2022/08/05 18:06:14;;;;;;;4.93;1.50;;;20.80;57.50;22.90;93868.00;;;;10471210;28;45091;-71
2022/08/05 18:11:36;;;;;;;2.28;1.33;;;20.80;57.60;23.00;93872.00;;;;10469004;28;45297;-62
2022/08/05 18:16:57;;;;;;;2.85;1.33;;;20.80;58.50;22.90;93906.00;;;;10465063;28;45315;-63
2022/08/05 18:22:17;;;;;;;2.38;1.48;;;20.70;58.10;22.90;93921.00;;;;10468392;28;45270;-63
2022/08/05 18:27:39;;;;;;;2.25;1.52;;;20.70;58.20;22.90;93955.00;;;;10481347;28;45535;-63
2022/08/05 18:33:00;;;;;;;2.85;1.40;;;20.70;58.40;22.90;93980.00;;;;10470803;28;45236;-63
2022/08/05 18:38:21;;;;;;;2.45;1.27;;;20.70;58.30;22.90;94010.00;;;;10467993;28;45193;-63
2022/08/05 18:43:43;;;;;;;3.22;1.48;;;20.70;58.20;22.90;94045.00;;;;10469590;28;45404;-63
2022/08/05 18:54:38;;;;;;;2.78;1.40;;;20.70;58.00;22.90;94049.00;;;;10468374;28;45302;-63
2022/08/05 19:00:00;;;;;;;1.92;1.23;;;20.70;57.80;22.90;94067.00;;;;10458901;28;45511;-62
2022/08/05 19:05:22;;;;;;;3.53;1.30;;;20.70;57.70;22.90;94082.00;;;;10472003;28;45243;-63
2022/08/05 19:10:43;;;;;;;1.83;1.10;;;20.70;57.70;22.90;94097.00;;;;10477094;28;45148;-63
2022/08/05 19:16:06;;;;;;;2.53;1.40;;;20.70;58.30;22.90;94107.00;;;;10475705;28;45314;-63
2022/08/05 19:21:27;;;;;;;1.33;1.20;;;20.70;57.70;22.90;94136.00;;;;10476014;28;45268;-62
2022/08/05 19:26:48;;;;;;;1.58;1.13;;;20.70;57.60;22.90;94144.00;;;;10489813;28;45171;-62
2022/08/05 19:32:10;;;;;;;2.58;1.50;;;20.70;57.70;22.90;94154.00;;;;10469330;28;45383;-62
2022/08/05 19:37:30;;;;;;;2.10;1.20;;;20.70;57.60;22.90;94176.00;;;;10473414;28;45317;-63
2022/08/05 19:42:51;;;;;;;2.75;1.30;;;20.70;57.50;22.90;94208.00;;;;10474966;28;45317;-62
2022/08/05 19:48:13;;;;;;;3.20;1.50;;;20.70;57.50;22.90;94213.00;;;;10475068;28;45281;-62
2022/08/05 19:53:34;;;;;;;1.20;1.08;;;20.70;57.50;22.90;94230.00;;;;10474988;28;45207;-62
2022/08/05 19:58:54;;;;;;;1.63;1.10;;;20.70;57.50;22.80;94230.00;;;;10473867;28;45120;-62
2022/08/05 20:04:16;;;;;;;3.33;1.40;;;20.60;57.50;22.80;94229.00;;;;10469970;28;45463;-63
2022/08/05 20:09:37;;;;;;;2.60;1.23;;;20.70;57.50;22.80;94255.00;;;;10471027;28;45241;-62
2022/08/05 20:14:57;;;;;;;1.77;1.40;;;20.60;57.50;22.80;94249.00;;;;10469890;28;45349;-62
2022/08/05 20:20:19;;;;;;;1.70;1.10;;;20.70;57.50;22.80;94258.00;;;;10470251;28;45158;-62
2022/08/05 20:25:40;;;;;;;2.15;1.10;;;20.60;57.50;22.80;94267.00;;;;10474930;28;45215;-63
2022/08/05 20:31:00;;;;;;;1.88;1.20;;;20.60;57.50;22.80;94271.00;;;;10470211;28;45200;-63
2022/08/05 20:36:23;;;;;;;2.58;1.20;;;20.60;57.50;22.80;94252.00;;;;10469706;28;45306;-63
2022/08/05 20:41:43;;;;;;;1.98;1.30;;;20.60;57.50;22.80;94278.00;;;;10474406;28;45486;-64
2022/08/05 20:47:06;;;;;;;2.53;1.33;;;20.60;57.50;22.80;94289.00;;;;10472958;28;45266;-63
2022/08/05 20:52:28;;;;;;;1.80;1.10;;;20.60;57.50;22.80;94283.00;;;;10473126;28;45261;-63
2022/08/05 20:57:49;;;;;;;2.45;1.33;;;20.60;57.50;22.80;94296.00;;;;10470674;28;45225;-63
2022/08/05 21:03:10;;;;;;;1.35;1.10;;;20.60;58.30;22.80;94294.00;;;;10468925;28;45263;-63
2022/08/05 21:08:32;;;;;;;3.05;1.30;;;20.60;57.70;22.80;94288.00;;;;10472900;28;45279;-62
2022/08/05 21:13:52;;;;;;;2.00;1.30;;;20.60;57.90;22.80;94290.00;;;;10472391;28;45234;-62
2022/08/05 21:19:13;;;;;;;2.50;1.27;;;20.60;57.80;22.80;94300.00;;;;10472301;28;45268;-62
2022/08/05 21:24:35;;;;;;;1.85;1.10;;;20.60;58.00;22.80;94306.00;;;;10475548;28;45499;-62
2022/08/05 21:29:57;;;;;;;1.25;0.93;;;20.60;58.00;22.80;94317.00;;;;10487664;27;45175;-62
2022/08/05 21:35:18;;;;;;;1.50;1.08;;;20.60;58.00;22.80;94304.00;;;;10459160;28;45498;-62
2022/08/05 21:40:40;;;;;;;1.65;1.20;;;20.60;58.00;22.70;94299.00;;;;10470653;28;45147;-61
2022/08/05 21:46:00;;;;;;;1.25;1.00;;;20.60;58.10;22.80;94312.00;;;;10472082;28;45419;-62
2022/08/05 21:51:21;;;;;;;1.50;1.10;;;20.60;58.20;22.80;94341.00;;;;10472128;28;45348;-62
2022/08/05 21:56:42;;;;;;;2.10;0.93;;;20.60;58.20;22.80;94332.00;;;;10471240;28;45183;-62
2022/08/05 22:02:03;;;;;;;2.25;1.00;;;20.60;58.30;22.80;94329.00;;;;10471515;28;45191;-62
2022/08/05 22:07:24;;;;;;;1.60;1.10;;;20.60;58.30;22.80;94329.00;;;;10470285;28;45166;-62
2022/08/05 22:12:46;;;;;;;1.65;0.90;;;20.60;58.30;22.80;94357.00;;;;10471109;28;45118;-62
2022/08/05 22:18:07;;;;;;;1.80;1.10;;;20.60;58.30;22.80;94351.00;;;;10470586;28;45510;-62
2022/08/05 22:29:08;;;;;;;2.33;1.10;;;20.60;58.60;22.80;94380.00;;;;10475266;28;45267;-62
2022/08/05 22:34:29;;;;;;;1.20;0.93;;;20.60;58.60;22.70;94366.00;;;;10470124;28;45355;-62
2022/08/05 22:39:49;;;;;;;1.80;1.15;;;20.60;58.60;22.70;94351.00;;;;10468855;28;45257;-62
2022/08/05 22:45:11;;;;;;;1.17;0.90;;;20.60;58.60;22.80;94350.00;;;;10469714;28;45358;-62
2022/08/05 22:50:32;;;;;;;1.42;1.00;;;20.60;58.80;22.70;94347.00;;;;10469690;28;45172;-62
2022/08/05 22:55:53;;;;;;;1.33;0.90;;;20.50;58.70;22.80;94357.00;;;;10469190;28;45470;-62
2022/08/05 23:01:15;;;;;;;1.50;1.00;;;20.60;58.80;22.70;94350.00;;;;10470014;28;45255;-62
2022/08/05 23:06:36;;;;;;;1.98;1.08;;;20.60;58.90;22.70;94355.00;;;;10468877;28;45172;-62
2022/08/05 23:11:57;;;;;;;1.00;0.90;;;20.60;59.10;22.70;94343.00;;;;10469076;28;45184;-62
2022/08/05 23:17:25;;;;;;;1.48;1.10;;;20.50;59.10;22.70;94332.00;;;;10468349;28;45087;-62
2022/08/05 23:22:46;;;;;;;1.77;0.90;;;20.50;59.00;22.70;94341.00;;;;10468966;28;45284;-62
2022/08/05 23:28:07;;;;;;;1.90;0.80;;;20.60;59.20;22.70;94322.00;;;;10487905;28;45233;-62
2022/08/05 23:33:29;;;;;;;1.67;0.75;;;20.50;59.10;22.70;94320.00;;;;10468059;28;45216;-61
2022/08/05 23:38:49;;;;;;;0.90;0.80;;;20.50;59.00;22.70;94323.00;;;;10467476;28;45359;-62
2022/08/05 23:44:10;;;;;;;1.13;0.90;;;20.50;59.20;22.70;94330.00;;;;10468031;28;45189;-62
2022/08/05 23:49:32;;;;;;;1.23;0.88;;;20.50;59.20;22.70;94327.00;;;;10468264;28;45295;-62
2022/08/05 23:54:54;;;;;;;1.00;0.90;;;20.60;59.30;22.70;94315.00;;;;10474054;28;45276;-62
